Time;durP1;ratioP1;P1;durP2;ratioP2;P2;SDS_P1;SDS_P2;PMS_P1;PMS_P2;Temp;Humidity;BMP_temperature;BMP_pressure;BME280_temperature;BME280_humidity;BME280_pressure;Samples;Min_cycle;Max_cycle;Signal;HPM_P1;HPM_P2
2022/08/16 00:00:10;;;;;;;13.93;10.85;;;;;;;23.58;100.00;98165.81;4356048;32;20028;-70
2022/08/16 00:02:57;;;;;;;13.62;10.25;;;;;;;23.42;100.00;98163.09;4368801;32;20385;-70
2022/08/16 00:05:24;;;;;;;12.00;9.68;;;;;;;23.58;100.00;98163.87;4369753;32;20061;-70
2022/08/16 00:07:52;;;;;;;18.20;10.82;;;;;;;23.47;100.00;98160.09;4355922;32;20035;-69
2022/08/16 00:10:19;;;;;;;20.67;10.80;;;;;;;23.49;100.00;98163.28;4355110;32;20046;-70
2022/08/16 00:12:46;;;;;;;17.20;10.55;;;;;;;22.97;100.00;98120.41;4340061;33;20036;-70
2022/08/16 00:15:21;;;;;;;18.83;10.07;;;;;;;23.19;100.00;98154.72;4339572;33;20444;-69
2022/08/16 00:17:47;;;;;;;20.00;10.20;;;;;;;23.15;100.00;98160.12;4340180;33;20536;-70
2022/08/16 00:20:14;;;;;;;15.63;9.88;;;;;;;22.80;100.00;98127.84;4340953;33;20047;-69
2022/08/16 00:22:41;;;;;;;13.43;9.57;;;;;;;22.34;100.00;98121.09;4338359;32;20032;-70
2022/08/16 00:25:11;;;;;;;26.52;10.93;;;;;;;22.48;100.00;98127.78;4340027;33;20422;-70
2022/08/16 00:27:38;;;;;;;17.40;10.90;;;;;;;22.98;100.00;98176.91;4339902;33;20051;-70
2022/08/16 00:30:07;;;;;;;16.45;14.13;;;;;;;23.04;100.00;98154.31;4340186;33;20028;-70
2022/08/16 00:32:35;;;;;;;15.40;10.52;;;;;;;22.99;100.00;98113.41;4352876;32;20054;-71
2022/08/16 00:35:03;;;;;;;16.48;10.77;;;;;;;23.43;100.00;98161.94;4354273;32;20055;-70
2022/08/16 00:37:29;;;;;;;15.75;10.77;;;;;;;23.03;100.00;98130.75;4340757;33;20046;-69
2022/08/16 00:39:55;;;;;;;14.10;9.98;;;;;;;22.99;100.00;98156.53;4339301;33;20494;-69
2022/08/16 00:42:23;;;;;;;14.77;9.57;;;;;;;22.98;100.00;98172.19;4339199;33;20056;-71
2022/08/16 00:44:55;;;;;;;23.73;10.20;;;;;;;22.88;100.00;98172.75;4340472;33;20507;-69
2022/08/16 00:47:24;;;;;;;16.12;10.23;;;;;;;22.73;100.00;98133.13;4350892;32;20109;-70
2022/08/16 00:49:52;;;;;;;17.48;10.90;;;;;;;22.76;100.00;98137.91;4355281;32;20442;-70
2022/08/16 00:52:18;;;;;;;19.35;11.50;;;;;;;23.03;100.00;98173.88;4355008;32;20035;-69
2022/08/16 00:54:45;;;;;;;16.87;10.90;;;;;;;22.77;100.00;98172.44;4352014;32;20091;-69
2022/08/16 00:57:12;;;;;;;23.60;11.18;;;;;;;22.56;100.00;98160.88;4370789;32;20047;-69
2022/08/16 00:59:40;;;;;;;21.33;11.35;;;;;;;22.75;100.00;98163.78;4371798;32;20039;-70
2022/08/16 01:02:08;;;;;;;11.07;9.57;;;;;;;22.52;100.00;98143.56;4372165;32;20064;-70
2022/08/16 01:04:35;;;;;;;27.95;12.10;;;;;;;22.80;100.00;98165.44;4369062;32;20425;-71
2022/08/16 01:07:04;;;;;;;14.27;9.98;;;;;;;22.77;100.00;98169.72;4371974;32;20450;-70
2022/08/16 01:09:34;;;;;;;12.82;11.10;;;;;;;22.67;100.00;98170.19;4372176;32;20035;-70
2022/08/16 01:12:03;;;;;;;23.17;10.52;;;;;;;22.43;100.00;98163.72;4371530;32;20063;-70
2022/08/16 01:14:39;;;;;;;17.95;11.48;;;;;;;22.57;100.00;98162.50;4353290;32;20036;-69
2022/08/16 01:17:07;;;;;;;13.60;10.90;;;;;;;22.08;100.00;98120.41;4353429;32;20966;-69
2022/08/16 01:19:44;;;;;;;18.40;9.88;;;;;;;22.47;100.00;98161.06;4353130;32;20042;-69
2022/08/16 01:22:24;;;;;;;17.80;10.95;;;;;;;22.52;100.00;98165.50;4352394;32;20069;-70
2022/08/16 01:24:56;;;;;;;12.65;10.57;;;;;;;22.64;100.00;98165.41;4354864;32;20065;-69
2022/08/16 01:27:29;;;;;;;22.52;11.02;;;;;;;22.51;100.00;98169.38;4354824;32;20097;-69
2022/08/16 01:30:16;;;;;;;17.40;11.18;;;;;;;22.27;100.00;98146.34;4354921;32;20049;-69
2022/08/16 01:32:43;;;;;;;17.45;11.48;;;;;;;22.51;100.00;98152.91;4353905;32;20043;-70
2022/08/16 01:35:09;;;;;;;12.35;10.80;;;;;;;22.22;100.00;98124.69;4354901;32;20035;-70
2022/08/16 01:37:47;;;;;;;16.83;10.85;;;;;;;22.44;100.00;98113.19;4353433;32;20036;-71
2022/08/16 01:40:17;;;;;;;19.37;11.25;;;;;;;22.48;100.00;98149.75;4354712;32;20053;-70
2022/08/16 01:42:46;;;;;;;12.70;10.82;;;;;;;22.67;100.00;98145.50;4354348;32;20457;-70
2022/08/16 01:45:13;;;;;;;16.12;10.70;;;;;;;22.47;100.00;98109.72;4355051;32;20036;-69
2022/08/16 01:47:41;;;;;;;14.90;10.63;;;;;;;22.65;100.00;98148.59;4354606;32;20075;-70
2022/08/16 01:50:08;;;;;;;13.77;11.23;;;;;;;22.71;100.00;98135.44;4355735;32;20458;-69
2022/08/16 01:52:35;;;;;;;11.52;9.88;;;;;;;22.85;100.00;98146.00;4362036;32;20077;-69
2022/08/16 01:55:05;;;;;;;12.70;10.57;;;;;;;22.66;100.00;98125.53;4371552;32;20031;-70
2022/08/16 01:57:32;;;;;;;19.92;12.20;;;;;;;22.55;100.00;98138.16;4370301;32;20035;-71
2022/08/16 01:59:59;;;;;;;14.65;10.80;;;;;;;22.78;100.00;98141.09;4370646;32;20069;-70
2022/08/16 02:02:26;;;;;;;15.63;10.63;;;;;;;22.54;100.00;98105.59;4364154;32;20054;-69
2022/08/16 02:04:53;;;;;;;16.52;10.57;;;;;;;22.44;100.00;98104.94;4371467;32;20035;-70
2022/08/16 02:07:20;;;;;;;20.42;10.88;;;;;;;22.60;100.00;98139.84;4354423;33;20416;-70
2022/08/16 02:09:47;;;;;;;13.88;11.25;;;;;;;22.24;100.00;98105.94;4351649;33;20061;-70
2022/08/16 02:12:15;;;;;;;25.45;11.05;;;;;;;22.42;100.00;98139.38;4354181;33;20047;-70
2022/08/16 02:14:42;;;;;;;17.95;10.52;;;;;;;22.29;100.00;98105.69;4353387;33;20024;-70
2022/08/16 02:17:10;;;;;;;23.00;10.85;;;;;;;22.07;100.00;98091.38;4354129;33;20410;-71
2022/08/16 02:19:41;;;;;;;20.23;10.50;;;;;;;22.14;100.00;98118.19;4366313;32;20104;-70
2022/08/16 02:22:13;;;;;;;16.73;10.63;;;;;;;22.74;100.00;98140.22;4369069;32;20081;-70
2022/08/16 02:24:42;;;;;;;15.10;10.45;;;;;;;22.53;100.00;98145.12;4369387;32;20471;-69
2022/08/16 02:27:09;;;;;;;11.65;9.88;;;;;;;22.57;100.00;98146.03;4361216;32;20073;-69
2022/08/16 02:29:37;;;;;;;16.40;10.82;;;;;;;22.39;100.00;98107.94;4365242;32;20043;-70
2022/08/16 02:32:04;;;;;;;12.60;9.85;;;;;;;22.76;100.00;98124.19;4364764;32;20086;-69
2022/08/16 02:34:31;;;;;;;21.42;13.27;;;;;;;22.39;100.00;98129.09;4368853;32;20031;-70
2022/08/16 02:36:58;;;;;;;12.65;10.35;;;;;;;22.23;100.00;98113.38;4371005;32;20073;-69
2022/08/16 02:39:24;;;;;;;16.48;11.70;;;;;;;22.30;100.00;98110.06;4368655;32;20070;-69
2022/08/16 02:41:52;;;;;;;33.13;11.90;;;;;;;22.37;100.00;98099.28;4360195;32;20085;-69
2022/08/16 02:44:19;;;;;;;19.40;10.60;;;;;;;22.34;100.00;98101.91;4361537;32;20052;-69
2022/08/16 02:46:46;;;;;;;18.73;10.52;;;;;;;22.54;100.00;98146.72;4374225;32;20044;-69
2022/08/16 02:49:13;;;;;;;13.90;11.10;;;;;;;22.37;100.00;98148.66;4373302;32;20065;-70
2022/08/16 02:51:41;;;;;;;14.00;10.27;;;;;;;22.36;100.00;98147.03;4371260;32;20043;-70
2022/08/16 02:54:08;;;;;;;16.42;10.30;;;;;;;22.37;100.00;98148.66;4372182;32;20438;-70
2022/08/16 02:56:36;;;;;;;17.20;10.27;;;;;;;22.25;100.00;98143.19;4373805;32;20083;-69
2022/08/16 02:59:02;;;;;;;16.20;10.88;;;;;;;22.35;100.00;98150.13;4373923;32;20396;-69
2022/08/16 03:01:31;;;;;;;13.38;10.98;;;;;;;22.15;100.00;98103.34;4372948;32;20031;-70
2022/08/16 03:04:00;;;;;;;15.85;10.43;;;;;;;22.28;100.00;98112.31;4373382;32;20370;-69
2022/08/16 03:06:27;;;;;;;16.62;11.20;;;;;;;22.38;100.00;98150.22;4372690;32;20385;-68
2022/08/16 03:08:54;;;;;;;14.80;10.55;;;;;;;22.09;100.00;98116.50;4373855;32;20035;-70
2022/08/16 03:11:22;;;;;;;14.35;10.50;;;;;;;22.18;100.00;98140.22;4373588;32;20043;-70
2022/08/16 03:13:52;;;;;;;13.62;10.45;;;;;;;22.07;100.00;98124.28;4371561;32;20381;-69
2022/08/16 03:16:20;;;;;;;18.80;11.25;;;;;;;22.35;100.00;98139.16;4373351;32;20051;-70
2022/08/16 03:18:47;;;;;;;20.52;11.25;;;;;;;22.11;100.00;98092.28;4371451;32;20028;-70
2022/08/16 03:21:13;;;;;;;16.87;11.07;;;;;;;22.40;100.00;98087.63;4373382;32;20069;-70
2022/08/16 03:23:40;;;;;;;27.00;11.88;;;;;;;22.48;100.00;98086.66;4369540;32;20408;-71
2022/08/16 03:26:08;;;;;;;17.15;10.95;;;;;;;22.34;100.00;98094.50;4375400;32;20530;-70
2022/08/16 03:28:35;;;;;;;13.82;11.40;;;;;;;22.28;100.00;98101.34;4385252;32;20353;-70
2022/08/16 03:31:02;;;;;;;12.10;10.50;;;;;;;22.52;100.00;98143.56;4386616;32;20035;-70
2022/08/16 03:33:29;;;;;;;12.40;9.98;;;;;;;22.20;100.00;98111.31;4384829;32;20428;-70
2022/08/16 03:35:58;;;;;;;16.45;10.63;;;;;;;22.47;100.00;98148.13;4386268;32;20077;-70
2022/08/16 03:38:27;;;;;;;13.10;10.32;;;;;;;22.48;100.00;98126.97;4386228;32;20053;-70
2022/08/16 03:40:56;;;;;;;20.88;10.68;;;;;;;22.22;100.00;98113.72;4383469;32;20057;-70
2022/08/16 03:43:24;;;;;;;18.95;11.90;;;;;;;22.21;100.00;98106.62;4374247;32;20036;-70
2022/08/16 03:45:57;;;;;;;14.30;11.35;;;;;;;22.49;100.00;98142.28;4370360;32;20065;-70
2022/08/16 03:48:28;;;;;;;17.83;10.70;;;;;;;22.27;100.00;98110.72;4376509;32;20089;-70
2022/08/16 03:50:55;;;;;;;16.73;10.85;;;;;;;22.20;100.00;98116.81;4382430;32;20027;-70
2022/08/16 03:53:21;;;;;;;14.82;11.68;;;;;;;22.44;100.00;98154.31;4351149;33;20454;-70
2022/08/16 03:55:48;;;;;;;16.73;11.02;;;;;;;22.30;100.00;98118.28;4323819;33;20049;-70
2022/08/16 03:58:15;;;;;;;12.95;10.85;;;;;;;22.25;100.00;98119.28;4326786;33;20053;-70
2022/08/16 04:00:42;;;;;;;24.83;11.55;;;;;;;22.57;100.00;98157.00;4317505;33;20526;-70
2022/08/16 04:03:11;;;;;;;14.48;11.40;;;;;;;21.99;100.00;98111.53;4325756;33;20037;-70
2022/08/16 04:05:45;;;;;;;13.73;11.12;;;;;;;21.93;100.00;98167.72;4323833;33;20021;-71
2022/08/16 04:08:12;;;;;;;20.20;11.43;;;;;;;22.00;100.00;98167.91;4296328;33;20075;-70
2022/08/16 04:10:39;;;;;;;20.08;10.65;;;;;;;22.53;100.00;98173.38;4316643;33;20036;-70
2022/08/16 04:13:06;;;;;;;15.98;11.55;;;;;;;22.43;100.00;98169.19;4311594;33;20033;-70
2022/08/16 04:15:33;;;;;;;19.30;11.05;;;;;;;22.34;100.00;98165.81;4318643;33;20037;-71
2022/08/16 04:18:00;;;;;;;15.77;11.65;;;;;;;22.37;100.00;98172.50;4324848;33;20392;-70
2022/08/16 04:20:27;;;;;;;19.08;11.38;;;;;;;22.30;100.00;98175.84;4326515;33;20028;-70
2022/08/16 04:22:54;;;;;;;16.25;11.82;;;;;;;22.00;100.00;98135.03;4326944;33;20062;-70
2022/08/16 04:25:22;;;;;;;16.20;12.27;;;;;;;22.45;100.00;98171.59;4352886;32;20040;-70
2022/08/16 04:27:49;;;;;;;16.95;10.55;;;;;;;22.69;100.00;98178.91;4336832;32;20021;-71
2022/08/16 04:30:18;;;;;;;15.70;11.40;;;;;;;22.54;100.00;98158.50;4326128;33;20998;-70
2022/08/16 04:32:45;;;;;;;19.02;11.57;;;;;;;22.58;100.00;98131.19;4326761;33;20066;-70
2022/08/16 04:35:17;;;;;;;19.67;11.35;;;;;;;22.57;100.00;98124.09;4368357;32;20024;-70
2022/08/16 04:37:44;;;;;;;;;;;;;;;22.95;100.00;98172.13;4370493;32;20047;-71
2022/08/16 04:40:13;;;;;;;14.90;10.40;;;;;;;23.03;100.00;98173.88;4372669;32;19956;-70
2022/08/16 04:42:41;;;;;;;14.35;10.80;;;;;;;22.85;100.00;98146.00;4372113;32;20484;-70
2022/08/16 04:45:12;;;;;;;27.73;11.52;;;;;;;22.73;100.00;98144.09;4371092;32;20349;-70
2022/08/16 04:47:41;;;;;;;17.23;11.40;;;;;;;22.99;100.00;98173.81;4370115;32;20035;-71
2022/08/16 04:50:13;;;;;;;15.57;11.35;;;;;;;22.84;100.00;98134.19;4372123;32;20073;-71
2022/08/16 04:52:53;;;;;;;20.15;9.80;;;;;;;23.00;100.00;98152.62;4371719;32;20065;-70
2022/08/16 04:55:24;;;;;;;22.85;11.23;;;;;;;22.99;100.00;98120.84;4370792;32;20035;-70
2022/08/16 04:57:52;;;;;;;22.13;11.12;;;;;;;23.24;100.00;98167.38;4371416;32;20051;-70
2022/08/16 05:00:33;;;;;;;17.15;10.77;;;;;;;23.05;100.00;98133.16;4338877;33;20456;-70
2022/08/16 05:03:07;;;;;;;15.88;10.55;;;;;;;23.11;100.00;98163.94;4352001;32;20184;-71
2022/08/16 05:05:38;;;;;;;22.52;11.70;;;;;;;23.02;100.00;98166.78;4355318;32;20048;-70
2022/08/16 05:08:05;;;;;;;14.52;11.45;;;;;;;23.38;100.00;98179.50;4352085;32;20024;-70
2022/08/16 05:10:31;;;;;;;19.15;10.40;;;;;;;23.15;100.00;98143.66;4355138;32;20031;-70
2022/08/16 05:12:59;;;;;;;18.98;10.35;;;;;;;23.47;100.00;98179.31;4345154;32;20095;-70
2022/08/16 05:15:27;;;;;;;19.62;10.98;;;;;;;23.63;100.00;98184.78;4354847;32;20036;-70
2022/08/16 05:17:55;;;;;;;20.70;11.85;;;;;;;23.59;100.00;98183.91;4354289;32;20385;-70
2022/08/16 05:20:21;;;;;;;24.87;10.45;;;;;;;23.60;100.00;98190.19;4340136;33;20060;-69
2022/08/16 05:22:48;;;;;;;21.98;11.43;;;;;;;23.67;100.00;98171.13;4334165;33;20079;-69
2022/08/16 05:25:16;;;;;;;15.55;10.65;;;;;;;23.82;100.00;98175.81;4338726;33;20506;-69
2022/08/16 05:27:43;;;;;;;16.27;10.13;;;;;;;23.89;100.00;98175.97;4337923;33;20429;-70
2022/08/16 05:30:12;;;;;;;13.38;10.77;;;;;;;23.87;100.00;98172.81;4339984;32;20039;-69
2022/08/16 05:32:40;;;;;;;15.73;10.38;;;;;;;23.92;100.00;98178.00;4354146;32;20028;-69
2022/08/16 05:35:09;;;;;;;14.40;9.77;;;;;;;23.96;100.00;98180.03;4353208;32;20055;-70
2022/08/16 05:37:38;;;;;;;13.90;10.63;;;;;;;23.98;100.00;98178.53;4354429;32;20051;-70
2022/08/16 05:40:09;;;;;;;16.67;10.90;;;;;;;24.04;100.00;98181.78;4354517;32;20063;-70
2022/08/16 05:42:37;;;;;;;15.02;11.45;;;;;;;23.99;100.00;98179.31;4352747;32;20065;-69
2022/08/16 05:45:05;;;;;;;22.08;11.90;;;;;;;23.91;100.00;98145.38;4352376;32;20090;-70
2022/08/16 05:47:31;;;;;;;17.52;11.35;;;;;;;24.01;100.00;98153.03;4352518;32;20189;-68
2022/08/16 05:49:58;;;;;;;24.55;11.23;;;;;;;24.12;100.00;98150.53;4354056;32;20078;-71
2022/08/16 05:52:24;;;;;;;17.25;10.55;;;;;;;24.40;100.00;98185.28;4369837;32;20035;-68
2022/08/16 05:54:50;;;;;;;22.80;11.50;;;;;;;24.62;100.00;98184.56;4369941;32;20072;-69
2022/08/16 05:57:18;;;;;;;16.80;11.57;;;;;;;24.57;100.00;98149.09;4382367;32;20079;-69
2022/08/16 05:59:46;;;;;;;24.75;9.70;;;;;;;24.61;100.00;98152.69;4375386;32;20293;-68
2022/08/16 06:02:13;;;;;;;16.87;10.23;;;;;;;24.82;100.00;98181.78;4368629;32;20053;-69
2022/08/16 06:04:41;;;;;;;17.33;11.85;;;;;;;24.57;100.00;98118.84;4367208;32;20032;-69
2022/08/16 06:07:08;;;;;;;26.12;12.57;;;;;;;24.98;100.00;98174.19;4378389;32;20461;-70
2022/08/16 06:09:36;;;;;;;18.27;11.07;;;;;;;25.00;100.00;98154.56;4368461;32;20110;-69
2022/08/16 06:12:03;;;;;;;13.00;9.65;;;;;;;25.31;100.00;98186.59;4378381;32;20092;-70
2022/08/16 06:14:30;;;;;;;21.55;10.48;;;;;;;25.43;100.00;98193.06;4368303;32;20032;-69
2022/08/16 06:16:57;;;;;;;18.02;12.25;;;;;;;25.36;100.00;98200.06;4350872;33;20048;-71
2022/08/16 06:19:24;;;;;;;12.82;9.82;;;;;;;25.37;100.00;98201.66;4316504;33;20048;-69
2022/08/16 06:21:51;;;;;;;23.73;11.25;;;;;;;25.24;100.00;98200.25;4326801;33;20024;-69
2022/08/16 06:24:17;;;;;;;17.15;9.85;;;;;;;25.42;100.00;98199.75;4327457;33;20029;-69
2022/08/16 06:26:44;;;;;;;17.35;9.50;;;;;;;25.07;100.00;98159.41;4325440;33;20112;-69
2022/08/16 06:29:10;;;;;;;16.23;10.48;;;;;;;25.18;100.00;98165.91;4323314;33;20062;-71
2022/08/16 06:31:37;;;;;;;15.60;9.05;;;;;;;25.36;100.00;98169.75;4326527;33;20060;-70
2022/08/16 06:34:05;;;;;;;22.90;10.05;;;;;;;25.65;100.00;98200.50;4323664;33;20036;-69
2022/08/16 06:36:31;;;;;;;18.95;10.50;;;;;;;25.61;100.00;98210.69;4324744;33;20021;-71
2022/08/16 06:38:58;;;;;;;30.10;10.07;;;;;;;25.71;100.00;98204.53;4327374;33;20021;-69
2022/08/16 06:41:26;;;;;;;15.63;10.35;;;;;;;25.81;100.00;98202.31;4319720;33;20197;-69
2022/08/16 06:43:55;;;;;;;13.80;9.25;;;;;;;25.66;100.00;98185.56;4325698;33;21354;-71
2022/08/16 06:46:28;;;;;;;15.27;9.50;;;;;;;25.64;100.00;98203.63;4326575;33;20041;-70
2022/08/16 06:48:55;;;;;;;12.15;8.98;;;;;;;25.55;100.00;98179.87;4318675;33;20040;-70
2022/08/16 06:51:22;;;;;;;18.62;10.80;;;;;;;25.76;100.00;98199.88;4338638;32;20396;-70
2022/08/16 06:53:48;;;;;;;12.50;9.15;;;;;;;25.60;100.00;98183.50;4342388;32;20075;-70
2022/08/16 06:56:15;;;;;;;13.00;9.55;;;;;;;25.77;100.00;98226.28;4353593;32;20065;-70
2022/08/16 06:58:44;;;;;;;22.48;9.55;;;;;;;25.83;100.00;98194.47;4336411;33;20098;-71
2022/08/16 07:01:11;;;;;;;14.38;9.25;;;;;;;25.41;100.00;98239.50;4338773;32;20043;-74
2022/08/16 07:03:38;;;;;;;24.05;12.10;;;;;;;25.48;100.00;98234.09;4338348;33;20078;-69
2022/08/16 07:06:05;;;;;;;15.75;9.18;;;;;;;25.68;100.00;98245.84;4342593;32;20475;-71
2022/08/16 07:08:32;;;;;;;19.27;10.10;;;;;;;25.46;100.00;98197.84;4345512;32;20020;-73
2022/08/16 07:11:00;;;;;;;22.77;10.38;;;;;;;25.56;100.00;98222.00;4343061;32;20057;-71
2022/08/16 07:13:26;;;;;;;13.00;9.38;;;;;;;25.58;100.00;98235.44;4344976;32;20069;-74
2022/08/16 07:15:53;;;;;;;17.50;10.63;;;;;;;25.45;100.00;98207.28;4339544;32;20095;-70
2022/08/16 07:18:22;;;;;;;16.62;10.65;;;;;;;25.40;100.00;98204.84;4341286;32;20187;-69
2022/08/16 07:20:50;;;;;;;21.75;11.48;;;;;;;25.14;100.00;98198.06;4347452;32;20035;-70
2022/08/16 07:23:16;;;;;;;13.95;9.23;;;;;;;25.15;100.00;98202.44;4354303;32;20077;-74
2022/08/16 07:25:45;;;;;;;20.85;11.15;;;;;;;25.88;100.00;98252.03;4324437;33;20045;-71
2022/08/16 07:28:13;;;;;;;17.80;9.45;;;;;;;25.91;100.00;98218.22;4327356;33;20036;-70
2022/08/16 07:30:41;;;;;;;18.98;11.23;;;;;;;26.13;100.00;98240.63;4330691;33;20048;-70
2022/08/16 07:33:09;;;;;;;17.55;9.98;;;;;;;26.06;100.00;98241.31;4325020;33;20126;-73
2022/08/16 07:35:36;;;;;;;20.40;9.90;;;;;;;26.08;100.00;98237.00;4344010;33;20062;-70
2022/08/16 07:38:05;;;;;;;17.62;9.75;;;;;;;26.13;100.00;98240.63;4341609;32;20196;-71
2022/08/16 07:40:35;;;;;;;15.38;10.00;;;;;;;26.27;100.00;98247.13;4346481;32;20047;-72
2022/08/16 07:43:03;;;;;;;22.30;10.00;;;;;;;26.17;100.00;98247.78;4309716;33;20085;-70
2022/08/16 07:45:29;;;;;;;20.80;9.07;;;;;;;26.16;100.00;98246.19;4294521;33;20092;-69
2022/08/16 07:47:56;;;;;;;18.87;10.57;;;;;;;26.02;100.00;98245.97;4294105;33;20485;-70
2022/08/16 07:50:23;;;;;;;17.45;10.32;;;;;;;25.90;100.00;98217.41;4295567;33;20037;-70
2022/08/16 07:52:49;;;;;;;20.23;9.48;;;;;;;25.65;100.00;98222.56;4295356;33;20050;-69
2022/08/16 07:55:17;;;;;;;19.25;9.25;;;;;;;25.67;100.00;98219.44;4292650;33;20053;-68
2022/08/16 07:57:44;;;;;;;14.68;9.10;;;;;;;25.97;100.00;98214.00;4309037;33;20136;-69
2022/08/16 08:00:12;;;;;;;19.60;9.65;;;;;;;26.41;100.00;98256.78;4309751;33;20058;-69
2022/08/16 08:02:41;;;;;;;14.27;9.25;;;;;;;26.38;100.00;98263.81;4310548;33;20070;-69
2022/08/16 08:05:09;;;;;;;22.83;10.40;;;;;;;26.33;100.00;98253.13;4309523;33;20123;-71
2022/08/16 08:07:36;;;;;;;14.38;9.10;;;;;;;26.35;100.00;98248.00;4310595;33;20090;-69
2022/08/16 08:10:04;;;;;;;14.15;10.55;;;;;;;26.34;100.00;98216.06;4281596;33;20412;-70
2022/08/16 08:12:38;;;;;;;17.37;9.48;;;;;;;26.43;100.00;98215.78;4282566;33;20201;-69
2022/08/16 08:15:09;;;;;;;11.63;9.48;;;;;;;26.58;100.00;98249.88;4302634;33;20059;-72
2022/08/16 08:17:39;;;;;;;15.17;10.17;;;;;;;26.36;100.00;98252.38;4338783;32;20048;-70
2022/08/16 08:20:10;;;;;;;16.55;9.85;;;;;;;26.55;100.00;98256.13;4346203;32;20144;-68
2022/08/16 08:22:38;;;;;;;14.02;9.82;;;;;;;26.82;100.00;98254.94;4350060;33;20039;-70
2022/08/16 08:25:06;;;;;;;10.32;9.23;;;;;;;26.86;100.00;98237.62;4353698;32;20023;-70
2022/08/16 08:27:33;;;;;;;15.57;9.68;;;;;;;26.77;100.00;98219.38;4341252;32;20125;-70
2022/08/16 08:30:00;;;;;;;12.05;9.02;;;;;;;26.96;100.00;98237.72;4339741;33;20368;-70
2022/08/16 08:32:27;;;;;;;17.65;9.75;;;;;;;26.74;100.00;98214.62;4350951;32;20088;-71
2022/08/16 08:34:57;;;;;;;16.05;9.15;;;;;;;27.14;100.00;98243.44;4338248;32;20048;-69
2022/08/16 08:37:24;;;;;;;12.35;8.63;;;;;;;27.23;100.00;98234.03;4331006;32;20027;-69
2022/08/16 08:39:52;;;;;;;18.37;10.88;;;;;;;26.92;100.00;98214.78;4338615;32;20036;-68
2022/08/16 08:42:19;;;;;;;11.75;8.02;;;;;;;27.06;100.00;98252.00;4364244;32;20084;-69
2022/08/16 08:44:45;;;;;;;13.50;7.95;;;;;;;27.02;100.00;98185.69;4370560;32;20072;-70
2022/08/16 08:47:12;;;;;;;11.63;7.93;;;;;;;27.41;100.00;98235.00;4370824;32;20430;-71
2022/08/16 08:49:39;;;;;;;14.18;7.82;;;;;;;27.19;100.00;98218.22;4360698;32;20091;-71
2022/08/16 08:52:06;;;;;;;12.85;8.90;;;;;;;27.04;100.00;98213.72;4358512;32;20065;-69
2022/08/16 08:54:33;;;;;;;13.43;7.62;;;;;;;27.33;100.00;98244.41;4370470;32;20129;-70
2022/08/16 08:57:00;;;;;;;15.55;8.05;;;;;;;27.00;100.00;98183.31;4368108;32;20328;-69
2022/08/16 08:59:26;;;;;;;13.98;8.30;;;;;;;27.40;100.00;98238.97;4364323;32;20044;-70
2022/08/16 09:01:53;;;;;;;12.98;8.43;;;;;;;27.60;100.00;98241.47;4365813;32;20043;-70
2022/08/16 09:04:19;;;;;;;26.95;8.82;;;;;;;27.45;100.00;98237.81;4352988;32;20039;-69
2022/08/16 09:06:47;;;;;;;17.12;9.98;;;;;;;27.28;100.00;98181.97;4356637;32;20028;-69
2022/08/16 09:09:14;;;;;;;16.02;7.72;;;;;;;27.66;100.00;98209.53;4354965;32;20054;-69
2022/08/16 09:11:43;;;;;;;12.27;7.40;;;;;;;27.81;100.00;98247.19;4358211;32;20405;-68
2022/08/16 09:14:10;;;;;;;19.20;6.90;;;;;;;27.70;100.00;98240.78;4353341;32;20053;-68
2022/08/16 09:16:37;;;;;;;11.88;9.13;;;;;;;27.77;100.00;98251.09;4369837;32;20421;-68
2022/08/16 09:19:03;;;;;;;17.75;7.72;;;;;;;27.73;100.00;98251.06;4368898;32;20069;-68
2022/08/16 09:21:31;;;;;;;6.95;6.25;;;;;;;27.75;100.00;98254.25;4368126;32;20375;-70
2022/08/16 09:23:57;;;;;;;11.50;6.15;;;;;;;27.70;100.00;98251.84;4369321;32;20053;-68
2022/08/16 09:26:23;;;;;;;10.10;5.87;;;;;;;27.86;100.00;98248.81;4368598;32;20505;-68
2022/08/16 09:28:50;;;;;;;7.72;6.32;;;;;;;27.88;100.00;98263.81;4365930;32;20024;-68
2022/08/16 09:31:18;;;;;;;10.82;6.40;;;;;;;27.70;100.00;98224.19;4354370;32;20020;-68
2022/08/16 09:33:45;;;;;;;13.70;7.43;;;;;;;28.05;100.00;98261.56;4352271;32;20055;-69
2022/08/16 09:36:11;;;;;;;12.65;7.60;;;;;;;27.95;100.00;98262.31;4365981;32;20072;-68
2022/08/16 09:38:39;;;;;;;13.60;6.60;;;;;;;28.22;100.00;98260.88;4370259;32;20024;-68
2022/08/16 09:41:09;;;;;;;10.95;8.32;;;;;;;27.79;100.00;98232.94;4369699;32;20036;-68
2022/08/16 09:43:37;;;;;;;11.30;6.32;;;;;;;28.08;100.00;98266.34;4366017;32;20087;-69
2022/08/16 09:46:06;;;;;;;10.07;8.00;;;;;;;28.44;100.00;98263.78;4370095;32;20070;-69
2022/08/16 09:48:40;;;;;;;19.40;6.82;;;;;;;28.84;100.00;98273.06;4369710;32;20450;-68
2022/08/16 09:51:11;;;;;;;10.52;7.00;;;;;;;28.57;100.00;98242.91;4368654;32;20039;-71
2022/08/16 09:53:38;;;;;;;13.15;7.10;;;;;;;28.79;100.00;98265.94;4368398;32;20043;-70
2022/08/16 09:56:21;;;;;;;16.05;6.20;;;;;;;28.44;100.00;98238.88;4369896;32;20059;-70
2022/08/16 09:58:48;;;;;;;10.27;5.95;;;;;;;28.68;100.00;98247.69;4368704;32;20160;-70
2022/08/16 10:01:15;;;;;;;12.05;6.90;;;;;;;28.94;100.00;98255.72;4369414;32;20400;-71
2022/08/16 10:03:41;;;;;;;11.70;6.55;;;;;;;29.35;100.00;98269.25;4368326;32;20085;-72
2022/08/16 10:06:08;;;;;;;6.40;5.70;;;;;;;29.01;100.00;98237.47;4369630;32;20437;-71
2022/08/16 10:08:34;;;;;;;7.78;6.15;;;;;;;29.22;100.00;98279.16;4370461;32;20163;-70
2022/08/16 10:13:45;;;;;;;12.02;7.05;;;;;;;29.83;100.00;98286.75;4370277;32;20095;-70
2022/08/16 10:16:12;;;;;;;6.80;6.20;;;;;;;29.89;100.00;98285.16;4367184;32;20411;-71
2022/08/16 10:18:40;;;;;;;7.35;6.45;;;;;;;29.67;100.00;98274.03;4351289;32;20043;-71
2022/08/16 10:21:08;;;;;;;11.05;6.70;;;;;;;29.60;100.00;98296.22;4352502;32;20048;-71
2022/08/16 10:23:35;;;;;;;9.13;5.80;;;;;;;29.55;100.00;98293.84;4353424;32;20060;-70
2022/08/16 10:26:01;;;;;;;12.52;6.22;;;;;;;29.67;100.00;98284.34;4351554;33;20051;-70
2022/08/16 10:28:29;;;;;;;10.07;6.37;;;;;;;29.60;100.00;98289.88;4350740;33;20069;-71
2022/08/16 10:30:57;;;;;;;13.05;6.37;;;;;;;29.10;100.00;98268.38;4348960;33;20069;-70
2022/08/16 10:33:25;;;;;;;9.73;6.85;;;;;;;29.48;100.00;98261.34;4351756;33;20047;-71
2022/08/16 10:35:52;;;;;;;7.10;6.00;;;;;;;29.81;100.00;98295.47;4348460;33;20077;-70
2022/08/16 10:38:19;;;;;;;11.38;6.25;;;;;;;30.00;100.00;98283.16;4342705;33;20069;-70
2022/08/16 10:40:45;;;;;;;11.20;6.15;;;;;;;29.61;100.00;98289.47;4352769;33;20061;-70
2022/08/16 10:43:12;;;;;;;11.43;5.75;;;;;;;29.86;100.00;98258.19;4351309;32;20179;-70
2022/08/16 10:45:39;;;;;;;6.50;5.55;;;;;;;30.03;100.00;98279.59;4352052;32;20043;-70
2022/08/16 10:48:09;;;;;;;8.30;6.62;;;;;;;30.04;100.00;98258.16;4352327;32;20028;-70
2022/08/16 10:50:36;;;;;;;11.23;6.85;;;;;;;29.96;100.00;98279.56;4352108;33;20020;-71
2022/08/16 10:53:05;;;;;;;6.60;5.90;;;;;;;29.85;100.00;98278.81;4350179;32;20511;-70
2022/08/16 10:55:35;;;;;;;7.80;7.00;;;;;;;29.89;100.00;98274.06;4352133;32;20041;-69
2022/08/16 10:58:04;;;;;;;10.03;5.80;;;;;;;30.03;100.00;98262.94;4353194;32;20073;-70
2022/08/16 11:00:31;;;;;;;10.90;6.80;;;;;;;30.19;100.00;98286.72;4354711;32;20121;-73
2022/08/16 11:03:04;;;;;;;7.62;6.55;;;;;;;30.20;100.00;98243.84;4354603;32;20031;-69
2022/08/16 11:05:33;;;;;;;8.55;6.03;;;;;;;30.03;100.00;98246.28;4355074;32;20069;-70
2022/08/16 11:08:00;;;;;;;7.35;6.65;;;;;;;30.12;100.00;98286.69;4353770;32;20083;-70
2022/08/16 11:10:33;;;;;;;8.57;6.20;;;;;;;30.26;100.00;98250.59;4336569;33;20054;-70
2022/08/16 11:13:01;;;;;;;18.20;6.93;;;;;;;30.41;100.00;98260.50;4336567;32;20912;-72
2022/08/16 11:15:27;;;;;;;8.88;6.55;;;;;;;30.48;100.00;98292.22;4305255;33;20114;-72
2022/08/16 11:17:54;;;;;;;7.18;6.47;;;;;;;30.24;100.00;98284.28;4303929;33;20107;-70
2022/08/16 11:20:21;;;;;;;7.32;6.50;;;;;;;29.79;100.00;98249.88;4295886;33;20070;-70